sensor_id;sensor_type;location;lat;lon;timestamp;P1;durP1;ratioP1;P2;durP2;ratioP2
58974;SDS011;44751;52.236;5.178;2023-09-19T03:36:56;15.30;;;2.90;;
58974;SDS011;44751;52.236;5.178;2023-09-19T03:39:22;9.98;;;1.85;;
58974;SDS011;44751;52.236;5.178;2023-09-19T03:41:49;13.77;;;2.10;;
58974;SDS011;44751;52.236;5.178;2023-09-19T03:44:15;7.28;;;1.77;;
58974;SDS011;44751;52.236;5.178;2023-09-19T03:46:42;12.55;;;3.47;;
58974;SDS011;44751;52.236;5.178;2023-09-19T03:49:08;12.85;;;2.13;;
58974;SDS011;44751;52.236;5.178;2023-09-19T03:51:35;10.75;;;2.67;;
58974;SDS011;44751;52.236;5.178;2023-09-19T03:54:02;11.82;;;2.47;;
58974;SDS011;44751;52.236;5.178;2023-09-19T03:56:32;10.52;;;2.53;;
58974;SDS011;44751;52.236;5.178;2023-09-19T03:59:05;18.58;;;2.60;;
58974;SDS011;44751;52.236;5.178;2023-09-19T04:01:33;10.15;;;2.30;;
58974;SDS011;44751;52.236;5.178;2023-09-19T04:04:00;9.77;;;2.15;;
58974;SDS011;44751;52.236;5.178;2023-09-19T04:06:33;10.27;;;3.25;;
58974;SDS011;44751;52.236;5.178;2023-09-19T04:09:01;9.75;;;2.13;;
58974;SDS011;44751;52.236;5.178;2023-09-19T04:11:31;8.77;;;2.00;;
58974;SDS011;44751;52.236;5.178;2023-09-19T04:13:58;11.35;;;2.58;;
58974;SDS011;44751;52.236;5.178;2023-09-19T04:16:25;9.15;;;1.60;;
58974;SDS011;44751;52.236;5.178;2023-09-19T04:18:52;8.07;;;1.80;;
58974;SDS011;44751;52.236;5.178;2023-09-19T04:21:19;8.93;;;2.05;;
58974;SDS011;44751;52.236;5.178;2023-09-19T04:23:46;10.85;;;2.30;;
58974;SDS011;44751;52.236;5.178;2023-09-19T04:26:12;8.43;;;2.03;;
58974;SDS011;44751;52.236;5.178;2023-09-19T04:28:41;12.27;;;2.13;;
58974;SDS011;44751;52.236;5.178;2023-09-19T04:31:09;9.25;;;2.00;;
58974;SDS011;44751;52.236;5.178;2023-09-19T04:33:36;9.70;;;2.15;;
58974;SDS011;44751;52.236;5.178;2023-09-19T04:36:03;7.28;;;1.90;;
58974;SDS011;44751;52.236;5.178;2023-09-19T04:38:32;11.60;;;2.80;;
58974;SDS011;44751;52.236;5.178;2023-09-19T04:40:59;11.50;;;2.53;;
58974;SDS011;44751;52.236;5.178;2023-09-19T04:43:26;10.00;;;2.30;;
58974;SDS011;44751;52.236;5.178;2023-09-19T04:45:54;7.07;;;2.38;;
58974;SDS011;44751;52.236;5.178;2023-09-19T04:48:23;10.00;;;2.08;;
58974;SDS011;44751;52.236;5.178;2023-09-19T04:50:50;8.73;;;2.10;;
58974;SDS011;44751;52.236;5.178;2023-09-19T04:53:17;12.40;;;2.38;;
58974;SDS011;44751;52.236;5.178;2023-09-19T04:55:52;12.38;;;2.45;;
58974;SDS011;44751;52.236;5.178;2023-09-19T04:58:21;11.38;;;2.85;;
58974;SDS011;44751;52.236;5.178;2023-09-19T05:00:48;11.88;;;2.20;;
58974;SDS011;44751;52.236;5.178;2023-09-19T05:03:21;12.02;;;2.25;;
58974;SDS011;44751;52.236;5.178;2023-09-19T05:05:48;11.95;;;2.42;;
58974;SDS011;44751;52.236;5.178;2023-09-19T05:08:17;9.85;;;2.00;;
58974;SDS011;44751;52.236;5.178;2023-09-19T05:10:44;12.68;;;2.33;;
58974;SDS011;44751;52.236;5.178;2023-09-19T05:13:10;11.25;;;2.20;;
58974;SDS011;44751;52.236;5.178;2023-09-19T05:15:40;8.93;;;2.20;;
58974;SDS011;44751;52.236;5.178;2023-09-19T05:18:06;12.45;;;2.33;;
58974;SDS011;44751;52.236;5.178;2023-09-19T05:20:34;6.85;;;1.98;;
58974;SDS011;44751;52.236;5.178;2023-09-19T05:23:03;10.30;;;2.80;;
58974;SDS011;44751;52.236;5.178;2023-09-19T05:25:36;8.52;;;2.20;;
58974;SDS011;44751;52.236;5.178;2023-09-19T05:28:07;11.40;;;2.50;;
58974;SDS011;44751;52.236;5.178;2023-09-19T05:30:40;13.32;;;2.33;;
58974;SDS011;44751;52.236;5.178;2023-09-19T05:33:08;8.50;;;2.35;;
58974;SDS011;44751;52.236;5.178;2023-09-19T05:35:37;8.73;;;2.25;;
58974;SDS011;44751;52.236;5.178;2023-09-19T05:38:06;11.88;;;2.88;;
58974;SDS011;44751;52.236;5.178;2023-09-19T05:40:36;14.25;;;2.67;;
58974;SDS011;44751;52.236;5.178;2023-09-19T05:43:06;10.93;;;2.17;;
58974;SDS011;44751;52.236;5.178;2023-09-19T05:45:34;10.65;;;2.20;;
58974;SDS011;44751;52.236;5.178;2023-09-19T05:48:07;12.82;;;2.10;;
58974;SDS011;44751;52.236;5.178;2023-09-19T05:50:36;8.93;;;2.07;;
58974;SDS011;44751;52.236;5.178;2023-09-19T05:53:02;10.15;;;2.10;;
58974;SDS011;44751;52.236;5.178;2023-09-19T05:55:33;10.60;;;2.45;;
58974;SDS011;44751;52.236;5.178;2023-09-19T05:58:00;14.40;;;2.30;;
58974;SDS011;44751;52.236;5.178;2023-09-19T06:00:28;14.13;;;2.10;;
58974;SDS011;44751;52.236;5.178;2023-09-19T06:02:57;11.90;;;2.17;;
58974;SDS011;44751;52.236;5.178;2023-09-19T06:05:28;10.18;;;1.90;;
58974;SDS011;44751;52.236;5.178;2023-09-19T06:07:56;12.88;;;2.38;;
58974;SDS011;44751;52.236;5.178;2023-09-19T06:10:25;15.15;;;2.22;;
58974;SDS011;44751;52.236;5.178;2023-09-19T06:12:53;12.05;;;1.77;;
58974;SDS011;44751;52.236;5.178;2023-09-19T06:15:20;12.10;;;2.42;;
58974;SDS011;44751;52.236;5.178;2023-09-19T06:17:48;9.48;;;2.10;;
58974;SDS011;44751;52.236;5.178;2023-09-19T06:20:16;10.10;;;2.88;;
58974;SDS011;44751;52.236;5.178;2023-09-19T06:22:45;8.35;;;1.98;;
58974;SDS011;44751;52.236;5.178;2023-09-19T06:25:12;12.93;;;2.85;;
58974;SDS011;44751;52.236;5.178;2023-09-19T06:27:40;10.75;;;2.22;;
58974;SDS011;44751;52.236;5.178;2023-09-19T06:30:10;16.80;;;2.53;;
58974;SDS011;44751;52.236;5.178;2023-09-19T06:32:38;14.80;;;2.58;;
58974;SDS011;44751;52.236;5.178;2023-09-19T06:35:05;18.00;;;2.92;;
58974;SDS011;44751;52.236;5.178;2023-09-19T06:37:33;9.13;;;2.78;;
58974;SDS011;44751;52.236;5.178;2023-09-19T06:40:05;10.73;;;2.33;;
58974;SDS011;44751;52.236;5.178;2023-09-19T06:42:39;13.95;;;2.33;;
58974;SDS011;44751;52.236;5.178;2023-09-19T06:45:09;13.38;;;2.95;;
58974;SDS011;44751;52.236;5.178;2023-09-19T06:47:42;13.30;;;2.83;;
58974;SDS011;44751;52.236;5.178;2023-09-19T06:50:09;14.32;;;2.83;;
58974;SDS011;44751;52.236;5.178;2023-09-19T06:52:39;12.73;;;2.30;;
58974;SDS011;44751;52.236;5.178;2023-09-19T06:55:08;11.73;;;2.35;;
58974;SDS011;44751;52.236;5.178;2023-09-19T06:57:47;14.50;;;2.70;;
58974;SDS011;44751;52.236;5.178;2023-09-19T07:00:14;15.48;;;4.00;;
58974;SDS011;44751;52.236;5.178;2023-09-19T07:02:44;15.55;;;2.90;;
58974;SDS011;44751;52.236;5.178;2023-09-19T07:05:25;14.18;;;2.50;;
58974;SDS011;44751;52.236;5.178;2023-09-19T07:07:52;8.95;;;2.53;;
58974;SDS011;44751;52.236;5.178;2023-09-19T07:10:19;11.18;;;2.83;;
58974;SDS011;44751;52.236;5.178;2023-09-19T07:12:54;14.35;;;2.72;;
58974;SDS011;44751;52.236;5.178;2023-09-19T07:15:24;13.60;;;3.08;;
58974;SDS011;44751;52.236;5.178;2023-09-19T07:17:52;14.07;;;3.00;;
58974;SDS011;44751;52.236;5.178;2023-09-19T07:20:23;10.20;;;2.40;;
58974;SDS011;44751;52.236;5.178;2023-09-19T07:22:51;17.23;;;2.70;;
58974;SDS011;44751;52.236;5.178;2023-09-19T07:25:20;12.93;;;2.97;;
58974;SDS011;44751;52.236;5.178;2023-09-19T07:27:47;12.60;;;2.63;;
58974;SDS011;44751;52.236;5.178;2023-09-19T07:30:16;14.40;;;3.05;;
58974;SDS011;44751;52.236;5.178;2023-09-19T07:32:50;16.77;;;3.38;;
58974;SDS011;44751;52.236;5.178;2023-09-19T07:35:17;11.88;;;2.42;;
58974;SDS011;44751;52.236;5.178;2023-09-19T07:37:45;15.05;;;3.30;;
58974;SDS011;44751;52.236;5.178;2023-09-19T07:40:15;16.38;;;3.38;;
58974;SDS011;44751;52.236;5.178;2023-09-19T07:42:52;13.30;;;2.45;;
58974;SDS011;44751;52.236;5.178;2023-09-19T07:45:19;10.90;;;2.35;;
58974;SDS011;44751;52.236;5.178;2023-09-19T07:47:46;11.23;;;2.55;;
58974;SDS011;44751;52.236;5.178;2023-09-19T07:50:19;12.90;;;3.28;;
58974;SDS011;44751;52.236;5.178;2023-09-19T07:52:47;11.98;;;2.50;;
58974;SDS011;44751;52.236;5.178;2023-09-19T08:18:16;14.05;;;3.00;;
58974;SDS011;44751;52.236;5.178;2023-09-19T10:54:38;9.43;;;2.47;;
58974;SDS011;44751;52.236;5.178;2023-09-19T10:57:12;9.32;;;2.20;;
58974;SDS011;44751;52.236;5.178;2023-09-19T11:00:08;12.30;;;2.58;;
58974;SDS011;44751;52.236;5.178;2023-09-19T11:05:42;9.82;;;1.80;;
58974;SDS011;44751;52.236;5.178;2023-09-19T11:08:10;11.35;;;3.03;;
58974;SDS011;44751;52.236;5.178;2023-09-19T11:10:49;11.15;;;2.17;;
58974;SDS011;44751;52.236;5.178;2023-09-19T11:13:24;8.15;;;1.63;;
58974;SDS011;44751;52.236;5.178;2023-09-19T11:26:43;8.38;;;2.10;;
58974;SDS011;44751;52.236;5.178;2023-09-19T11:31:52;6.97;;;1.67;;
58974;SDS011;44751;52.236;5.178;2023-09-19T11:37:02;9.60;;;1.85;;
58974;SDS011;44751;52.236;5.178;2023-09-19T11:42:41;7.80;;;1.73;;
58974;SDS011;44751;52.236;5.178;2023-09-19T11:48:13;4.38;;;1.20;;
58974;SDS011;44751;52.236;5.178;2023-09-19T11:50:42;8.23;;;1.65;;
58974;SDS011;44751;52.236;5.178;2023-09-19T11:53:10;9.27;;;1.75;;
58974;SDS011;44751;52.236;5.178;2023-09-19T11:55:39;4.57;;;1.23;;
58974;SDS011;44751;52.236;5.178;2023-09-19T11:58:08;7.05;;;1.45;;
58974;SDS011;44751;52.236;5.178;2023-09-19T12:00:35;9.68;;;1.48;;
58974;SDS011;44751;52.236;5.178;2023-09-19T12:03:09;6.68;;;1.65;;
58974;SDS011;44751;52.236;5.178;2023-09-19T12:05:37;11.40;;;2.03;;
58974;SDS011;44751;52.236;5.178;2023-09-19T12:08:04;5.03;;;1.52;;
58974;SDS011;44751;52.236;5.178;2023-09-19T12:10:33;6.57;;;1.50;;
58974;SDS011;44751;52.236;5.178;2023-09-19T12:13:21;7.20;;;2.25;;
58974;SDS011;44751;52.236;5.178;2023-09-19T12:15:49;8.52;;;2.05;;
58974;SDS011;44751;52.236;5.178;2023-09-19T12:18:27;6.50;;;1.52;;
58974;SDS011;44751;52.236;5.178;2023-09-19T12:20:58;4.90;;;1.30;;
58974;SDS011;44751;52.236;5.178;2023-09-19T12:23:32;4.88;;;1.50;;
58974;SDS011;44751;52.236;5.178;2023-09-19T12:26:01;10.02;;;1.67;;
58974;SDS011;44751;52.236;5.178;2023-09-19T12:28:46;7.03;;;1.33;;
58974;SDS011;44751;52.236;5.178;2023-09-19T12:31:14;6.85;;;1.83;;
58974;SDS011;44751;52.236;5.178;2023-09-19T12:34:16;8.93;;;1.58;;
58974;SDS011;44751;52.236;5.178;2023-09-19T12:39:54;4.85;;;1.50;;
58974;SDS011;44751;52.236;5.178;2023-09-19T12:43:02;7.75;;;2.30;;
58974;SDS011;44751;52.236;5.178;2023-09-19T12:45:29;6.00;;;1.55;;
58974;SDS011;44751;52.236;5.178;2023-09-19T12:51:02;7.70;;;1.40;;
58974;SDS011;44751;52.236;5.178;2023-09-19T12:53:31;5.63;;;1.20;;
58974;SDS011;44751;52.236;5.178;2023-09-19T12:56:03;9.57;;;1.70;;
58974;SDS011;44751;52.236;5.178;2023-09-19T12:58:33;4.25;;;1.42;;
58974;SDS011;44751;52.236;5.178;2023-09-19T13:01:04;7.85;;;1.55;;
58974;SDS011;44751;52.236;5.178;2023-09-19T13:03:40;4.68;;;1.17;;
58974;SDS011;44751;52.236;5.178;2023-09-19T13:06:09;5.25;;;1.13;;
58974;SDS011;44751;52.236;5.178;2023-09-19T13:08:40;3.10;;;1.02;;
58974;SDS011;44751;52.236;5.178;2023-09-19T13:13:44;3.58;;;1.27;;
58974;SDS011;44751;52.236;5.178;2023-09-19T13:16:14;5.53;;;0.93;;
58974;SDS011;44751;52.236;5.178;2023-09-19T13:18:48;3.42;;;1.10;;
58974;SDS011;44751;52.236;5.178;2023-09-19T13:21:26;5.50;;;1.20;;
58974;SDS011;44751;52.236;5.178;2023-09-19T13:27:06;5.53;;;1.15;;
58974;SDS011;44751;52.236;5.178;2023-09-19T13:29:34;5.00;;;1.30;;
58974;SDS011;44751;52.236;5.178;2023-09-19T13:32:01;4.25;;;1.10;;
58974;SDS011;44751;52.236;5.178;2023-09-19T13:34:29;8.60;;;1.60;;
58974;SDS011;44751;52.236;5.178;2023-09-19T13:36:56;5.72;;;1.20;;
58974;SDS011;44751;52.236;5.178;2023-09-19T13:39:25;4.97;;;1.30;;
58974;SDS011;44751;52.236;5.178;2023-09-19T13:41:51;3.75;;;1.50;;
58974;SDS011;44751;52.236;5.178;2023-09-19T13:44:18;3.72;;;1.10;;
58974;SDS011;44751;52.236;5.178;2023-09-19T13:46:49;6.82;;;1.23;;
58974;SDS011;44751;52.236;5.178;2023-09-19T13:49:16;6.97;;;1.60;;
58974;SDS011;44751;52.236;5.178;2023-09-19T13:51:43;8.48;;;1.45;;
58974;SDS011;44751;52.236;5.178;2023-09-19T13:54:10;5.10;;;1.27;;
58974;SDS011;44751;52.236;5.178;2023-09-19T13:56:40;6.63;;;1.52;;
58974;SDS011;44751;52.236;5.178;2023-09-19T13:59:07;4.57;;;1.25;;
58974;SDS011;44751;52.236;5.178;2023-09-19T14:01:34;9.73;;;1.58;;
58974;SDS011;44751;52.236;5.178;2023-09-19T14:04:00;6.38;;;2.63;;
58974;SDS011;44751;52.236;5.178;2023-09-19T14:06:27;7.45;;;2.05;;
58974;SDS011;44751;52.236;5.178;2023-09-19T14:08:54;7.45;;;1.70;;
58974;SDS011;44751;52.236;5.178;2023-09-19T14:11:23;4.18;;;1.30;;
58974;SDS011;44751;52.236;5.178;2023-09-19T14:13:51;7.35;;;1.80;;
58974;SDS011;44751;52.236;5.178;2023-09-19T14:16:18;7.85;;;1.67;;
58974;SDS011;44751;52.236;5.178;2023-09-19T14:18:47;6.30;;;1.42;;
58974;SDS011;44751;52.236;5.178;2023-09-19T14:21:16;7.07;;;1.80;;
58974;SDS011;44751;52.236;5.178;2023-09-19T14:23:44;7.93;;;1.83;;
58974;SDS011;44751;52.236;5.178;2023-09-19T14:26:10;4.72;;;1.33;;
58974;SDS011;44751;52.236;5.178;2023-09-19T14:28:37;7.28;;;1.58;;
58974;SDS011;44751;52.236;5.178;2023-09-19T14:31:08;8.07;;;1.85;;
58974;SDS011;44751;52.236;5.178;2023-09-19T14:33:39;4.85;;;1.42;;
58974;SDS011;44751;52.236;5.178;2023-09-19T14:36:07;6.95;;;2.08;;
58974;SDS011;44751;52.236;5.178;2023-09-19T14:38:36;11.07;;;2.55;;
58974;SDS011;44751;52.236;5.178;2023-09-19T14:41:04;9.43;;;1.90;;
58974;SDS011;44751;52.236;5.178;2023-09-19T14:43:35;14.32;;;2.55;;
58974;SDS011;44751;52.236;5.178;2023-09-19T14:46:11;6.03;;;1.65;;
58974;SDS011;44751;52.236;5.178;2023-09-19T14:48:39;7.32;;;2.10;;
58974;SDS011;44751;52.236;5.178;2023-09-19T14:51:07;7.80;;;1.92;;
58974;SDS011;44751;52.236;5.178;2023-09-19T14:53:37;6.40;;;1.90;;
58974;SDS011;44751;52.236;5.178;2023-09-19T14:56:04;6.70;;;2.15;;
58974;SDS011;44751;52.236;5.178;2023-09-19T14:58:32;6.93;;;2.25;;
58974;SDS011;44751;52.236;5.178;2023-09-19T15:01:05;6.07;;;2.42;;
58974;SDS011;44751;52.236;5.178;2023-09-19T15:03:34;9.80;;;2.47;;
58974;SDS011;44751;52.236;5.178;2023-09-19T15:06:02;10.00;;;2.42;;
58974;SDS011;44751;52.236;5.178;2023-09-19T15:08:32;8.73;;;2.70;;
58974;SDS011;44751;52.236;5.178;2023-09-19T15:11:06;12.63;;;2.60;;
58974;SDS011;44751;52.236;5.178;2023-09-19T15:13:37;7.60;;;2.10;;
58974;SDS011;44751;52.236;5.178;2023-09-19T15:16:05;8.60;;;2.30;;
58974;SDS011;44751;52.236;5.178;2023-09-19T15:18:44;13.10;;;2.97;;
58974;SDS011;44751;52.236;5.178;2023-09-19T15:21:17;8.80;;;2.25;;
58974;SDS011;44751;52.236;5.178;2023-09-19T15:23:43;9.70;;;2.15;;
58974;SDS011;44751;52.236;5.178;2023-09-19T15:26:12;5.18;;;1.80;;
58974;SDS011;44751;52.236;5.178;2023-09-19T15:28:42;8.15;;;1.83;;
58974;SDS011;44751;52.236;5.178;2023-09-19T15:31:12;7.68;;;1.90;;
58974;SDS011;44751;52.236;5.178;2023-09-19T15:33:39;7.03;;;2.40;;
58974;SDS011;44751;52.236;5.178;2023-09-19T15:36:12;7.93;;;2.25;;
58974;SDS011;44751;52.236;5.178;2023-09-19T15:41:27;10.82;;;2.58;;
58974;SDS011;44751;52.236;5.178;2023-09-19T15:44:02;10.40;;;2.88;;
58974;SDS011;44751;52.236;5.178;2023-09-19T15:46:31;9.75;;;2.33;;
58974;SDS011;44751;52.236;5.178;2023-09-19T15:49:15;9.43;;;2.80;;
58974;SDS011;44751;52.236;5.178;2023-09-19T15:51:42;8.02;;;2.38;;
58974;SDS011;44751;52.236;5.178;2023-09-19T15:54:10;7.85;;;2.30;;
58974;SDS011;44751;52.236;5.178;2023-09-19T15:56:41;10.68;;;2.50;;
58974;SDS011;44751;52.236;5.178;2023-09-19T15:59:13;9.50;;;2.35;;
58974;SDS011;44751;52.236;5.178;2023-09-19T16:01:42;10.20;;;2.55;;
58974;SDS011;44751;52.236;5.178;2023-09-19T16:04:11;10.88;;;2.67;;
58974;SDS011;44751;52.236;5.178;2023-09-19T16:06:42;5.70;;;2.35;;
58974;SDS011;44751;52.236;5.178;2023-09-19T16:09:12;6.82;;;2.03;;
58974;SDS011;44751;52.236;5.178;2023-09-19T16:11:40;7.43;;;2.45;;
58974;SDS011;44751;52.236;5.178;2023-09-19T16:14:08;9.20;;;2.25;;
58974;SDS011;44751;52.236;5.178;2023-09-19T16:16:36;9.43;;;2.30;;
58974;SDS011;44751;52.236;5.178;2023-09-19T16:19:13;9.73;;;2.30;;
58974;SDS011;44751;52.236;5.178;2023-09-19T16:21:41;11.98;;;2.70;;
58974;SDS011;44751;52.236;5.178;2023-09-19T16:24:11;7.25;;;2.00;;
58974;SDS011;44751;52.236;5.178;2023-09-19T16:26:38;8.63;;;2.55;;
58974;SDS011;44751;52.236;5.178;2023-09-19T16:29:08;7.57;;;2.20;;
58974;SDS011;44751;52.236;5.178;2023-09-19T16:31:38;6.18;;;2.35;;
58974;SDS011;44751;52.236;5.178;2023-09-19T16:34:05;8.70;;;1.90;;
58974;SDS011;44751;52.236;5.178;2023-09-19T16:36:34;10.15;;;2.35;;
58974;SDS011;44751;52.236;5.178;2023-09-19T16:39:00;7.35;;;1.83;;
58974;SDS011;44751;52.236;5.178;2023-09-19T16:41:28;6.70;;;2.00;;
58974;SDS011;44751;52.236;5.178;2023-09-19T16:43:55;7.97;;;2.28;;
58974;SDS011;44751;52.236;5.178;2023-09-19T16:46:23;8.65;;;2.25;;
58974;SDS011;44751;52.236;5.178;2023-09-19T16:48:54;8.05;;;2.33;;
58974;SDS011;44751;52.236;5.178;2023-09-19T16:51:22;7.63;;;2.10;;
58974;SDS011;44751;52.236;5.178;2023-09-19T16:53:52;10.18;;;2.47;;
58974;SDS011;44751;52.236;5.178;2023-09-19T16:56:24;4.25;;;1.80;;
58974;SDS011;44751;52.236;5.178;2023-09-19T16:58:55;6.55;;;2.10;;
58974;SDS011;44751;52.236;5.178;2023-09-19T17:01:23;7.63;;;2.30;;
58974;SDS011;44751;52.236;5.178;2023-09-19T17:03:50;9.00;;;2.22;;
58974;SDS011;44751;52.236;5.178;2023-09-19T17:06:22;5.93;;;2.27;;
58974;SDS011;44751;52.236;5.178;2023-09-19T17:08:51;8.90;;;2.67;;
58974;SDS011;44751;52.236;5.178;2023-09-19T17:11:18;4.65;;;2.30;;
58974;SDS011;44751;52.236;5.178;2023-09-19T17:13:46;9.60;;;2.65;;
58974;SDS011;44751;52.236;5.178;2023-09-19T17:16:14;5.47;;;2.20;;
58974;SDS011;44751;52.236;5.178;2023-09-19T17:18:53;6.10;;;2.72;;
58974;SDS011;44751;52.236;5.178;2023-09-19T17:21:22;7.55;;;2.40;;
58974;SDS011;44751;52.236;5.178;2023-09-19T17:23:49;11.10;;;2.28;;
58974;SDS011;44751;52.236;5.178;2023-09-19T17:26:18;6.30;;;2.22;;
58974;SDS011;44751;52.236;5.178;2023-09-19T17:28:46;8.02;;;2.42;;
58974;SDS011;44751;52.236;5.178;2023-09-19T17:31:14;7.28;;;2.25;;
58974;SDS011;44751;52.236;5.178;2023-09-19T17:33:46;6.70;;;2.60;;
58974;SDS011;44751;52.236;5.178;2023-09-19T17:38:44;9.32;;;2.08;;
58974;SDS011;44751;52.236;5.178;2023-09-19T17:41:14;7.63;;;2.42;;
58974;SDS011;44751;52.236;5.178;2023-09-19T17:43:42;7.75;;;2.60;;
58974;SDS011;44751;52.236;5.178;2023-09-19T17:46:16;10.32;;;2.67;;
58974;SDS011;44751;52.236;5.178;2023-09-19T17:48:45;9.05;;;2.65;;
58974;SDS011;44751;52.236;5.178;2023-09-19T17:51:14;7.15;;;2.25;;
58974;SDS011;44751;52.236;5.178;2023-09-19T17:53:43;8.30;;;3.03;;
58974;SDS011;44751;52.236;5.178;2023-09-19T17:56:16;8.23;;;2.50;;
58974;SDS011;44751;52.236;5.178;2023-09-19T17:58:50;8.93;;;2.75;;
58974;SDS011;44751;52.236;5.178;2023-09-19T18:01:20;10.13;;;2.47;;
58974;SDS011;44751;52.236;5.178;2023-09-19T18:03:47;9.73;;;2.65;;
58974;SDS011;44751;52.236;5.178;2023-09-19T18:06:16;7.30;;;2.60;;
58974;SDS011;44751;52.236;5.178;2023-09-19T18:08:44;12.23;;;2.40;;
58974;SDS011;44751;52.236;5.178;2023-09-19T18:11:12;8.48;;;3.08;;
58974;SDS011;44751;52.236;5.178;2023-09-19T18:13:44;10.98;;;2.90;;
58974;SDS011;44751;52.236;5.178;2023-09-19T18:16:15;7.53;;;3.05;;
58974;SDS011;44751;52.236;5.178;2023-09-19T18:18:43;9.02;;;2.50;;
58974;SDS011;44751;52.236;5.178;2023-09-19T18:21:11;8.68;;;3.15;;
58974;SDS011;44751;52.236;5.178;2023-09-19T18:23:38;7.03;;;2.65;;
58974;SDS011;44751;52.236;5.178;2023-09-19T18:26:04;7.45;;;2.55;;
58974;SDS011;44751;52.236;5.178;2023-09-19T18:28:35;7.47;;;2.40;;
58974;SDS011;44751;52.236;5.178;2023-09-19T18:31:07;9.60;;;3.05;;
58974;SDS011;44751;52.236;5.178;2023-09-19T18:33:33;11.05;;;3.10;;
58974;SDS011;44751;52.236;5.178;2023-09-19T18:36:05;11.20;;;2.75;;
58974;SDS011;44751;52.236;5.178;2023-09-19T18:38:37;7.40;;;2.20;;
58974;SDS011;44751;52.236;5.178;2023-09-19T18:41:08;8.45;;;3.15;;
58974;SDS011;44751;52.236;5.178;2023-09-19T18:43:36;7.45;;;3.20;;
58974;SDS011;44751;52.236;5.178;2023-09-19T18:46:13;8.95;;;2.85;;
58974;SDS011;44751;52.236;5.178;2023-09-19T18:48:42;11.07;;;3.20;;
58974;SDS011;44751;52.236;5.178;2023-09-19T18:51:11;8.85;;;2.75;;
58974;SDS011;44751;52.236;5.178;2023-09-19T18:53:39;5.70;;;3.28;;
58974;SDS011;44751;52.236;5.178;2023-09-19T18:56:06;6.68;;;2.60;;
58974;SDS011;44751;52.236;5.178;2023-09-19T18:58:38;8.75;;;2.80;;
58974;SDS011;44751;52.236;5.178;2023-09-19T19:01:09;9.10;;;3.30;;
58974;SDS011;44751;52.236;5.178;2023-09-19T19:03:39;9.73;;;2.40;;
58974;SDS011;44751;52.236;5.178;2023-09-19T19:06:10;5.43;;;2.35;;
58974;SDS011;44751;52.236;5.178;2023-09-19T19:08:43;8.68;;;2.80;;
58974;SDS011;44751;52.236;5.178;2023-09-19T19:11:14;8.00;;;3.05;;
58974;SDS011;44751;52.236;5.178;2023-09-19T19:13:47;12.35;;;3.33;;
58974;SDS011;44751;52.236;5.178;2023-09-19T19:16:14;8.77;;;2.75;;
58974;SDS011;44751;52.236;5.178;2023-09-19T19:18:45;10.18;;;3.20;;
58974;SDS011;44751;52.236;5.178;2023-09-19T19:21:22;5.60;;;2.53;;
58974;SDS011;44751;52.236;5.178;2023-09-19T19:23:52;6.15;;;2.63;;
58974;SDS011;44751;52.236;5.178;2023-09-19T19:26:34;5.47;;;2.22;;
58974;SDS011;44751;52.236;5.178;2023-09-19T19:29:11;10.88;;;2.92;;
58974;SDS011;44751;52.236;5.178;2023-09-19T19:31:39;9.88;;;2.65;;
58974;SDS011;44751;52.236;5.178;2023-09-19T19:37:22;7.90;;;2.90;;
58974;SDS011;44751;52.236;5.178;2023-09-19T19:39:52;7.13;;;2.60;;
58974;SDS011;44751;52.236;5.178;2023-09-19T19:42:24;7.65;;;2.72;;
58974;SDS011;44751;52.236;5.178;2023-09-19T19:44:53;10.02;;;3.15;;
58974;SDS011;44751;52.236;5.178;2023-09-19T19:47:22;8.52;;;3.25;;
58974;SDS011;44751;52.236;5.178;2023-09-19T19:49:52;23.23;;;2.80;;
58974;SDS011;44751;52.236;5.178;2023-09-19T19:52:19;12.75;;;3.05;;
58974;SDS011;44751;52.236;5.178;2023-09-19T19:54:56;10.52;;;2.78;;
58974;SDS011;44751;52.236;5.178;2023-09-19T19:57:23;8.93;;;2.80;;
58974;SDS011;44751;52.236;5.178;2023-09-19T19:59:53;11.45;;;3.42;;
58974;SDS011;44751;52.236;5.178;2023-09-19T20:02:23;11.73;;;3.60;;
58974;SDS011;44751;52.236;5.178;2023-09-19T20:04:50;8.18;;;2.90;;
58974;SDS011;44751;52.236;5.178;2023-09-19T20:07:17;9.40;;;3.20;;
58974;SDS011;44751;52.236;5.178;2023-09-19T20:09:44;7.78;;;3.13;;
58974;SDS011;44751;52.236;5.178;2023-09-19T20:12:17;8.60;;;3.28;;
58974;SDS011;44751;52.236;5.178;2023-09-19T20:14:44;6.95;;;2.75;;
58974;SDS011;44751;52.236;5.178;2023-09-19T20:17:10;10.20;;;3.17;;
58974;SDS011;44751;52.236;5.178;2023-09-19T20:19:37;9.23;;;3.08;;
58974;SDS011;44751;52.236;5.178;2023-09-19T20:22:05;7.63;;;2.80;;
58974;SDS011;44751;52.236;5.178;2023-09-19T20:24:36;11.32;;;3.10;;
58974;SDS011;44751;52.236;5.178;2023-09-19T20:27:03;7.22;;;2.78;;
58974;SDS011;44751;52.236;5.178;2023-09-19T20:29:34;13.15;;;3.83;;
58974;SDS011;44751;52.236;5.178;2023-09-19T20:32:02;9.60;;;3.60;;
58974;SDS011;44751;52.236;5.178;2023-09-19T20:34:32;10.60;;;3.15;;
58974;SDS011;44751;52.236;5.178;2023-09-19T20:37:02;8.75;;;2.90;;
58974;SDS011;44751;52.236;5.178;2023-09-19T20:39:30;8.07;;;3.20;;
58974;SDS011;44751;52.236;5.178;2023-09-19T20:41:57;12.02;;;3.15;;
58974;SDS011;44751;52.236;5.178;2023-09-19T20:44:30;9.35;;;3.05;;
58974;SDS011;44751;52.236;5.178;2023-09-19T20:46:57;8.70;;;3.20;;
58974;SDS011;44751;52.236;5.178;2023-09-19T20:49:24;8.68;;;2.92;;
58974;SDS011;44751;52.236;5.178;2023-09-19T20:51:51;9.57;;;3.47;;
58974;SDS011;44751;52.236;5.178;2023-09-19T20:54:25;11.07;;;2.75;;
58974;SDS011;44751;52.236;5.178;2023-09-19T20:56:54;11.07;;;3.25;;
58974;SDS011;44751;52.236;5.178;2023-09-19T20:59:20;11.07;;;3.22;;
58974;SDS011;44751;52.236;5.178;2023-09-19T21:01:47;9.95;;;3.35;;
58974;SDS011;44751;52.236;5.178;2023-09-19T21:04:18;6.97;;;3.17;;
58974;SDS011;44751;52.236;5.178;2023-09-19T21:06:54;10.23;;;3.67;;
58974;SDS011;44751;52.236;5.178;2023-09-19T21:09:21;7.65;;;2.80;;
58974;SDS011;44751;52.236;5.178;2023-09-19T21:11:48;8.65;;;3.47;;
58974;SDS011;44751;52.236;5.178;2023-09-19T21:14:17;10.50;;;4.32;;
58974;SDS011;44751;52.236;5.178;2023-09-19T21:16:44;10.70;;;3.90;;
58974;SDS011;44751;52.236;5.178;2023-09-19T21:19:11;10.88;;;3.25;;
58974;SDS011;44751;52.236;5.178;2023-09-19T21:21:37;8.73;;;3.40;;
58974;SDS011;44751;52.236;5.178;2023-09-19T21:24:05;12.10;;;3.92;;
58974;SDS011;44751;52.236;5.178;2023-09-19T21:26:34;7.90;;;3.00;;
58974;SDS011;44751;52.236;5.178;2023-09-19T21:29:01;9.65;;;2.80;;
58974;SDS011;44751;52.236;5.178;2023-09-19T21:31:28;15.20;;;3.63;;
58974;SDS011;44751;52.236;5.178;2023-09-19T21:33:55;8.63;;;2.92;;
58974;SDS011;44751;52.236;5.178;2023-09-19T21:36:21;9.80;;;3.15;;
58974;SDS011;44751;52.236;5.178;2023-09-19T21:38:51;11.43;;;3.25;;
58974;SDS011;44751;52.236;5.178;2023-09-19T21:41:19;8.55;;;3.10;;
58974;SDS011;44751;52.236;5.178;2023-09-19T21:43:46;8.13;;;2.95;;
58974;SDS011;44751;52.236;5.178;2023-09-19T21:46:15;9.77;;;2.85;;
58974;SDS011;44751;52.236;5.178;2023-09-19T21:48:42;10.18;;;3.30;;
58974;SDS011;44751;52.236;5.178;2023-09-19T21:51:09;8.10;;;2.65;;
58974;SDS011;44751;52.236;5.178;2023-09-19T21:53:38;8.90;;;2.90;;
58974;SDS011;44751;52.236;5.178;2023-09-19T21:56:05;5.65;;;2.97;;
58974;SDS011;44751;52.236;5.178;2023-09-19T21:58:32;6.97;;;2.85;;
58974;SDS011;44751;52.236;5.178;2023-09-19T22:01:03;9.77;;;2.70;;
58974;SDS011;44751;52.236;5.178;2023-09-19T22:08:33;7.63;;;2.65;;
58974;SDS011;44751;52.236;5.178;2023-09-19T22:11:00;9.50;;;3.67;;
58974;SDS011;44751;52.236;5.178;2023-09-19T22:13:33;8.23;;;2.60;;
58974;SDS011;44751;52.236;5.178;2023-09-19T22:16:01;6.88;;;2.72;;
58974;SDS011;44751;52.236;5.178;2023-09-19T22:18:29;10.38;;;3.05;;
58974;SDS011;44751;52.236;5.178;2023-09-19T22:20:56;10.88;;;3.00;;